sensor_id;sensor_type;location;lat;lon;timestamp;P1;durP1;ratioP1;P2;durP2;ratioP2
10667;SDS011;5382;42.136;24.796;2023-05-10T00:01:42;4.90;;;3.35;;
10667;SDS011;5382;42.136;24.796;2023-05-10T00:04:09;3.28;;;2.97;;
10667;SDS011;5382;42.136;24.796;2023-05-10T00:06:36;6.10;;;3.55;;
10667;SDS011;5382;42.136;24.796;2023-05-10T00:09:04;6.43;;;3.10;;
10667;SDS011;5382;42.136;24.796;2023-05-10T00:11:31;5.93;;;3.17;;
10667;SDS011;5382;42.136;24.796;2023-05-10T00:13:58;7.13;;;3.13;;
10667;SDS011;5382;42.136;24.796;2023-05-10T00:16:24;8.10;;;3.40;;
10667;SDS011;5382;42.136;24.796;2023-05-10T00:18:51;3.17;;;2.88;;
10667;SDS011;5382;42.136;24.796;2023-05-10T00:21:18;4.25;;;2.88;;
10667;SDS011;5382;42.136;24.796;2023-05-10T00:23:45;4.20;;;3.38;;
10667;SDS011;5382;42.136;24.796;2023-05-10T00:26:13;8.30;;;3.88;;
10667;SDS011;5382;42.136;24.796;2023-05-10T00:28:41;6.43;;;3.97;;
10667;SDS011;5382;42.136;24.796;2023-05-10T00:31:08;8.80;;;4.07;;
10667;SDS011;5382;42.136;24.796;2023-05-10T00:33:35;7.65;;;4.07;;
10667;SDS011;5382;42.136;24.796;2023-05-10T00:36:02;5.60;;;3.65;;
10667;SDS011;5382;42.136;24.796;2023-05-10T00:38:29;6.60;;;4.22;;
10667;SDS011;5382;42.136;24.796;2023-05-10T00:40:56;6.00;;;3.95;;
10667;SDS011;5382;42.136;24.796;2023-05-10T00:43:24;5.50;;;3.70;;
10667;SDS011;5382;42.136;24.796;2023-05-10T00:45:51;6.22;;;3.65;;
10667;SDS011;5382;42.136;24.796;2023-05-10T00:48:18;7.03;;;3.95;;
10667;SDS011;5382;42.136;24.796;2023-05-10T00:50:45;4.25;;;3.50;;
10667;SDS011;5382;42.136;24.796;2023-05-10T00:53:13;5.25;;;2.97;;
10667;SDS011;5382;42.136;24.796;2023-05-10T00:55:41;5.40;;;3.78;;
10667;SDS011;5382;42.136;24.796;2023-05-10T00:58:08;5.95;;;3.95;;
10667;SDS011;5382;42.136;24.796;2023-05-10T01:00:36;6.63;;;3.67;;
10667;SDS011;5382;42.136;24.796;2023-05-10T01:03:04;12.18;;;4.00;;
10667;SDS011;5382;42.136;24.796;2023-05-10T01:05:31;6.25;;;4.47;;
10667;SDS011;5382;42.136;24.796;2023-05-10T01:07:57;8.52;;;4.05;;
10667;SDS011;5382;42.136;24.796;2023-05-10T01:10:24;5.88;;;4.25;;
10667;SDS011;5382;42.136;24.796;2023-05-10T01:12:51;5.75;;;4.45;;
10667;SDS011;5382;42.136;24.796;2023-05-10T01:15:18;7.75;;;5.63;;
10667;SDS011;5382;42.136;24.796;2023-05-10T01:17:48;8.15;;;4.40;;
10667;SDS011;5382;42.136;24.796;2023-05-10T01:20:15;5.30;;;4.68;;
10667;SDS011;5382;42.136;24.796;2023-05-10T01:25:40;5.25;;;4.32;;
10667;SDS011;5382;42.136;24.796;2023-05-10T01:28:33;7.38;;;5.30;;
10667;SDS011;5382;42.136;24.796;2023-05-10T01:34:11;9.65;;;5.47;;
10667;SDS011;5382;42.136;24.796;2023-05-10T01:36:43;8.95;;;5.43;;
10667;SDS011;5382;42.136;24.796;2023-05-10T01:39:15;7.90;;;5.80;;
10667;SDS011;5382;42.136;24.796;2023-05-10T01:41:48;6.30;;;5.30;;
10667;SDS011;5382;42.136;24.796;2023-05-10T01:44:20;15.07;;;6.18;;
10667;SDS011;5382;42.136;24.796;2023-05-10T01:46:57;7.15;;;5.43;;
10667;SDS011;5382;42.136;24.796;2023-05-10T01:49:32;7.30;;;5.95;;
10667;SDS011;5382;42.136;24.796;2023-05-10T01:52:06;10.05;;;6.50;;
10667;SDS011;5382;42.136;24.796;2023-05-10T01:54:37;11.68;;;5.93;;
10667;SDS011;5382;42.136;24.796;2023-05-10T01:57:09;7.20;;;5.75;;
10667;SDS011;5382;42.136;24.796;2023-05-10T01:59:40;9.10;;;6.18;;
10667;SDS011;5382;42.136;24.796;2023-05-10T02:02:11;9.10;;;6.45;;
10667;SDS011;5382;42.136;24.796;2023-05-10T02:04:42;10.68;;;6.75;;
10667;SDS011;5382;42.136;24.796;2023-05-10T02:07:11;7.82;;;5.75;;
10667;SDS011;5382;42.136;24.796;2023-05-10T02:09:38;8.35;;;6.40;;
10667;SDS011;5382;42.136;24.796;2023-05-10T02:12:07;7.85;;;5.32;;
10667;SDS011;5382;42.136;24.796;2023-05-10T02:14:35;6.65;;;5.85;;
10667;SDS011;5382;42.136;24.796;2023-05-10T02:17:04;10.63;;;6.57;;
10667;SDS011;5382;42.136;24.796;2023-05-10T02:19:32;8.55;;;5.60;;
10667;SDS011;5382;42.136;24.796;2023-05-10T02:22:03;6.82;;;5.25;;
10667;SDS011;5382;42.136;24.796;2023-05-10T02:24:31;7.50;;;5.50;;
10667;SDS011;5382;42.136;24.796;2023-05-10T02:27:00;7.78;;;5.57;;
10667;SDS011;5382;42.136;24.796;2023-05-10T02:29:28;9.75;;;6.20;;
10667;SDS011;5382;42.136;24.796;2023-05-10T02:31:57;9.73;;;6.03;;
10667;SDS011;5382;42.136;24.796;2023-05-10T02:34:25;10.20;;;5.70;;
10667;SDS011;5382;42.136;24.796;2023-05-10T02:36:54;7.65;;;5.32;;
10667;SDS011;5382;42.136;24.796;2023-05-10T02:39:23;7.63;;;5.65;;
10667;SDS011;5382;42.136;24.796;2023-05-10T02:41:53;8.52;;;5.57;;
10667;SDS011;5382;42.136;24.796;2023-05-10T02:44:21;7.00;;;5.88;;
10667;SDS011;5382;42.136;24.796;2023-05-10T02:46:50;8.90;;;5.70;;
10667;SDS011;5382;42.136;24.796;2023-05-10T02:49:17;7.65;;;6.68;;
10667;SDS011;5382;42.136;24.796;2023-05-10T02:51:47;6.00;;;4.90;;
10667;SDS011;5382;42.136;24.796;2023-05-10T02:54:18;6.53;;;5.20;;
10667;SDS011;5382;42.136;24.796;2023-05-10T02:56:50;7.10;;;5.38;;
10667;SDS011;5382;42.136;24.796;2023-05-10T02:59:20;8.70;;;5.47;;
10667;SDS011;5382;42.136;24.796;2023-05-10T03:01:46;10.82;;;6.28;;
10667;SDS011;5382;42.136;24.796;2023-05-10T03:04:13;5.72;;;5.10;;
10667;SDS011;5382;42.136;24.796;2023-05-10T03:06:40;10.88;;;5.88;;
10667;SDS011;5382;42.136;24.796;2023-05-10T03:09:07;9.88;;;5.53;;
10667;SDS011;5382;42.136;24.796;2023-05-10T03:11:42;10.50;;;5.05;;
10667;SDS011;5382;42.136;24.796;2023-05-10T03:14:24;7.75;;;5.60;;
10667;SDS011;5382;42.136;24.796;2023-05-10T03:17:04;10.75;;;5.70;;
10667;SDS011;5382;42.136;24.796;2023-05-10T03:19:39;7.22;;;5.43;;
10667;SDS011;5382;42.136;24.796;2023-05-10T03:22:16;7.60;;;5.78;;
10667;SDS011;5382;42.136;24.796;2023-05-10T03:24:50;6.63;;;5.13;;
10667;SDS011;5382;42.136;24.796;2023-05-10T03:27:20;8.90;;;5.15;;
10667;SDS011;5382;42.136;24.796;2023-05-10T03:29:50;11.50;;;5.78;;
10667;SDS011;5382;42.136;24.796;2023-05-10T03:32:17;10.60;;;6.00;;
10667;SDS011;5382;42.136;24.796;2023-05-10T03:34:44;7.57;;;4.82;;
10667;SDS011;5382;42.136;24.796;2023-05-10T03:37:11;7.65;;;5.40;;
10667;SDS011;5382;42.136;24.796;2023-05-10T03:39:37;11.38;;;5.57;;
10667;SDS011;5382;42.136;24.796;2023-05-10T03:42:04;7.55;;;5.43;;
10667;SDS011;5382;42.136;24.796;2023-05-10T03:44:31;6.88;;;5.50;;
10667;SDS011;5382;42.136;24.796;2023-05-10T03:47:00;6.82;;;5.05;;
10667;SDS011;5382;42.136;24.796;2023-05-10T03:49:27;7.47;;;5.22;;
10667;SDS011;5382;42.136;24.796;2023-05-10T03:51:54;11.02;;;5.55;;
10667;SDS011;5382;42.136;24.796;2023-05-10T03:54:21;8.50;;;5.57;;
10667;SDS011;5382;42.136;24.796;2023-05-10T03:56:47;11.07;;;5.45;;
10667;SDS011;5382;42.136;24.796;2023-05-10T03:59:14;8.75;;;5.43;;
10667;SDS011;5382;42.136;24.796;2023-05-10T04:01:41;9.65;;;5.40;;
10667;SDS011;5382;42.136;24.796;2023-05-10T04:04:09;12.50;;;5.30;;
10667;SDS011;5382;42.136;24.796;2023-05-10T04:06:37;6.43;;;5.65;;
10667;SDS011;5382;42.136;24.796;2023-05-10T04:09:04;9.38;;;5.65;;
10667;SDS011;5382;42.136;24.796;2023-05-10T04:11:31;6.40;;;4.78;;
10667;SDS011;5382;42.136;24.796;2023-05-10T04:13:58;6.38;;;4.75;;
10667;SDS011;5382;42.136;24.796;2023-05-10T04:16:24;6.57;;;5.22;;
10667;SDS011;5382;42.136;24.796;2023-05-10T04:18:51;10.18;;;5.22;;
10667;SDS011;5382;42.136;24.796;2023-05-10T04:21:20;10.55;;;5.88;;
10667;SDS011;5382;42.136;24.796;2023-05-10T04:23:46;11.07;;;7.22;;
10667;SDS011;5382;42.136;24.796;2023-05-10T04:26:13;10.32;;;5.47;;
10667;SDS011;5382;42.136;24.796;2023-05-10T04:28:40;8.00;;;5.93;;
10667;SDS011;5382;42.136;24.796;2023-05-10T04:31:08;8.88;;;5.10;;
10667;SDS011;5382;42.136;24.796;2023-05-10T04:33:36;9.65;;;5.00;;
10667;SDS011;5382;42.136;24.796;2023-05-10T04:36:03;9.98;;;5.20;;
10667;SDS011;5382;42.136;24.796;2023-05-10T04:38:32;7.82;;;4.70;;
10667;SDS011;5382;42.136;24.796;2023-05-10T04:41:08;11.65;;;5.40;;
10667;SDS011;5382;42.136;24.796;2023-05-10T04:43:36;6.93;;;5.00;;
10667;SDS011;5382;42.136;24.796;2023-05-10T04:46:04;6.47;;;4.45;;
10667;SDS011;5382;42.136;24.796;2023-05-10T04:48:32;8.27;;;5.43;;
10667;SDS011;5382;42.136;24.796;2023-05-10T04:50:58;7.10;;;5.05;;
10667;SDS011;5382;42.136;24.796;2023-05-10T04:53:26;7.88;;;4.97;;
10667;SDS011;5382;42.136;24.796;2023-05-10T04:55:54;6.18;;;5.13;;
10667;SDS011;5382;42.136;24.796;2023-05-10T04:58:21;6.72;;;4.85;;
10667;SDS011;5382;42.136;24.796;2023-05-10T05:00:47;9.77;;;4.72;;
10667;SDS011;5382;42.136;24.796;2023-05-10T05:03:14;5.43;;;4.07;;
10667;SDS011;5382;42.136;24.796;2023-05-10T05:05:41;5.90;;;4.43;;
10667;SDS011;5382;42.136;24.796;2023-05-10T05:08:08;4.30;;;3.90;;
10667;SDS011;5382;42.136;24.796;2023-05-10T05:10:35;7.47;;;4.82;;
10667;SDS011;5382;42.136;24.796;2023-05-10T05:13:03;9.10;;;5.05;;
10667;SDS011;5382;42.136;24.796;2023-05-10T05:15:30;9.38;;;4.15;;
10667;SDS011;5382;42.136;24.796;2023-05-10T05:17:57;5.88;;;4.55;;
10667;SDS011;5382;42.136;24.796;2023-05-10T05:20:23;7.43;;;4.47;;
10667;SDS011;5382;42.136;24.796;2023-05-10T05:22:50;7.35;;;4.35;;
10667;SDS011;5382;42.136;24.796;2023-05-10T05:25:17;5.53;;;4.10;;
10667;SDS011;5382;42.136;24.796;2023-05-10T05:27:44;10.40;;;4.75;;
10667;SDS011;5382;42.136;24.796;2023-05-10T05:30:12;5.72;;;4.40;;
10667;SDS011;5382;42.136;24.796;2023-05-10T05:32:39;5.90;;;3.70;;
10667;SDS011;5382;42.136;24.796;2023-05-10T05:35:06;7.78;;;4.28;;
10667;SDS011;5382;42.136;24.796;2023-05-10T05:37:33;5.65;;;4.30;;
10667;SDS011;5382;42.136;24.796;2023-05-10T05:40:00;8.50;;;4.80;;
10667;SDS011;5382;42.136;24.796;2023-05-10T05:42:28;4.95;;;3.78;;
10667;SDS011;5382;42.136;24.796;2023-05-10T05:44:54;6.38;;;3.88;;
10667;SDS011;5382;42.136;24.796;2023-05-10T05:47:23;4.88;;;4.28;;
10667;SDS011;5382;42.136;24.796;2023-05-10T05:49:49;3.95;;;3.50;;
10667;SDS011;5382;42.136;24.796;2023-05-10T05:52:16;7.40;;;4.45;;
10667;SDS011;5382;42.136;24.796;2023-05-10T05:54:43;5.18;;;3.75;;
10667;SDS011;5382;42.136;24.796;2023-05-10T05:57:10;4.43;;;3.58;;
10667;SDS011;5382;42.136;24.796;2023-05-10T05:59:37;6.13;;;3.05;;
10667;SDS011;5382;42.136;24.796;2023-05-10T06:02:07;7.57;;;4.82;;
10667;SDS011;5382;42.136;24.796;2023-05-10T06:04:35;6.82;;;4.85;;
10667;SDS011;5382;42.136;24.796;2023-05-10T06:07:02;7.03;;;4.47;;
10667;SDS011;5382;42.136;24.796;2023-05-10T06:09:28;7.65;;;3.95;;
10667;SDS011;5382;42.136;24.796;2023-05-10T06:11:55;5.25;;;4.57;;
10667;SDS011;5382;42.136;24.796;2023-05-10T06:14:22;7.80;;;4.97;;
10667;SDS011;5382;42.136;24.796;2023-05-10T06:16:49;5.10;;;3.97;;
10667;SDS011;5382;42.136;24.796;2023-05-10T06:19:15;6.30;;;3.72;;
10667;SDS011;5382;42.136;24.796;2023-05-10T06:21:43;4.22;;;3.83;;
10667;SDS011;5382;42.136;24.796;2023-05-10T06:24:10;5.07;;;3.70;;
10667;SDS011;5382;42.136;24.796;2023-05-10T06:26:37;7.25;;;4.03;;
10667;SDS011;5382;42.136;24.796;2023-05-10T06:29:04;4.45;;;3.83;;
10667;SDS011;5382;42.136;24.796;2023-05-10T06:31:31;7.55;;;3.67;;
10667;SDS011;5382;42.136;24.796;2023-05-10T06:33:58;5.70;;;4.07;;
10667;SDS011;5382;42.136;24.796;2023-05-10T06:36:25;6.53;;;4.50;;
10667;SDS011;5382;42.136;24.796;2023-05-10T06:38:53;5.47;;;4.57;;
10667;SDS011;5382;42.136;24.796;2023-05-10T06:41:21;7.85;;;4.50;;
10667;SDS011;5382;42.136;24.796;2023-05-10T06:43:48;5.40;;;3.55;;
10667;SDS011;5382;42.136;24.796;2023-05-10T06:46:15;6.25;;;3.83;;
10667;SDS011;5382;42.136;24.796;2023-05-10T06:48:42;5.47;;;3.35;;
10667;SDS011;5382;42.136;24.796;2023-05-10T06:51:09;5.88;;;3.03;;
10667;SDS011;5382;42.136;24.796;2023-05-10T06:53:36;6.70;;;4.35;;
10667;SDS011;5382;42.136;24.796;2023-05-10T06:56:04;6.03;;;4.72;;
10667;SDS011;5382;42.136;24.796;2023-05-10T06:58:32;5.70;;;4.57;;
10667;SDS011;5382;42.136;24.796;2023-05-10T07:01:01;8.93;;;4.40;;
10667;SDS011;5382;42.136;24.796;2023-05-10T07:03:29;8.95;;;3.70;;
10667;SDS011;5382;42.136;24.796;2023-05-10T07:05:59;6.15;;;4.60;;
10667;SDS011;5382;42.136;24.796;2023-05-10T07:08:28;4.80;;;4.07;;
10667;SDS011;5382;42.136;24.796;2023-05-10T07:10:59;5.30;;;4.43;;
10667;SDS011;5382;42.136;24.796;2023-05-10T07:13:27;7.22;;;4.35;;
10667;SDS011;5382;42.136;24.796;2023-05-10T07:15:55;6.25;;;3.80;;
10667;SDS011;5382;42.136;24.796;2023-05-10T07:18:21;6.82;;;4.07;;
10667;SDS011;5382;42.136;24.796;2023-05-10T07:20:48;5.90;;;4.38;;
10667;SDS011;5382;42.136;24.796;2023-05-10T07:23:15;6.63;;;4.53;;
10667;SDS011;5382;42.136;24.796;2023-05-10T07:25:44;5.63;;;4.30;;
10667;SDS011;5382;42.136;24.796;2023-05-10T07:28:11;6.30;;;4.00;;
10667;SDS011;5382;42.136;24.796;2023-05-10T07:30:39;4.60;;;4.05;;
10667;SDS011;5382;42.136;24.796;2023-05-10T07:33:06;6.40;;;3.50;;
10667;SDS011;5382;42.136;24.796;2023-05-10T07:35:33;8.10;;;3.95;;
10667;SDS011;5382;42.136;24.796;2023-05-10T07:38:00;4.55;;;4.15;;
10667;SDS011;5382;42.136;24.796;2023-05-10T07:40:27;6.00;;;4.05;;
10667;SDS011;5382;42.136;24.796;2023-05-10T07:42:55;6.45;;;4.63;;
10667;SDS011;5382;42.136;24.796;2023-05-10T07:45:22;10.27;;;4.60;;
10667;SDS011;5382;42.136;24.796;2023-05-10T07:47:50;6.55;;;4.40;;
10667;SDS011;5382;42.136;24.796;2023-05-10T07:50:17;5.38;;;3.88;;
10667;SDS011;5382;42.136;24.796;2023-05-10T07:52:44;5.82;;;4.57;;
10667;SDS011;5382;42.136;24.796;2023-05-10T07:55:11;8.18;;;4.05;;
10667;SDS011;5382;42.136;24.796;2023-05-10T07:57:38;4.38;;;3.63;;
10667;SDS011;5382;42.136;24.796;2023-05-10T08:00:05;6.20;;;3.92;;
10667;SDS011;5382;42.136;24.796;2023-05-10T08:02:34;4.93;;;3.75;;
10667;SDS011;5382;42.136;24.796;2023-05-10T08:05:03;4.63;;;3.92;;
10667;SDS011;5382;42.136;24.796;2023-05-10T08:07:30;5.00;;;3.28;;
10667;SDS011;5382;42.136;24.796;2023-05-10T08:09:57;7.20;;;3.75;;
10667;SDS011;5382;42.136;24.796;2023-05-10T08:12:24;4.22;;;3.40;;
10667;SDS011;5382;42.136;24.796;2023-05-10T08:14:50;5.65;;;3.60;;
10667;SDS011;5382;42.136;24.796;2023-05-10T08:17:17;4.55;;;3.70;;
10667;SDS011;5382;42.136;24.796;2023-05-10T08:19:44;5.00;;;3.80;;
10667;SDS011;5382;42.136;24.796;2023-05-10T08:22:12;6.28;;;3.75;;
10667;SDS011;5382;42.136;24.796;2023-05-10T08:24:39;6.25;;;3.30;;
10667;SDS011;5382;42.136;24.796;2023-05-10T08:27:07;6.68;;;3.50;;
10667;SDS011;5382;42.136;24.796;2023-05-10T08:29:34;6.40;;;3.50;;
10667;SDS011;5382;42.136;24.796;2023-05-10T08:32:01;6.35;;;3.40;;
10667;SDS011;5382;42.136;24.796;2023-05-10T08:34:28;3.13;;;2.80;;
10667;SDS011;5382;42.136;24.796;2023-05-10T08:36:56;8.32;;;4.30;;
10667;SDS011;5382;42.136;24.796;2023-05-10T08:39:24;5.47;;;3.45;;
10667;SDS011;5382;42.136;24.796;2023-05-10T08:41:51;6.75;;;3.50;;
10667;SDS011;5382;42.136;24.796;2023-05-10T08:44:20;6.45;;;3.78;;
10667;SDS011;5382;42.136;24.796;2023-05-10T08:46:47;7.78;;;3.53;;
10667;SDS011;5382;42.136;24.796;2023-05-10T08:49:19;5.18;;;3.47;;
10667;SDS011;5382;42.136;24.796;2023-05-10T08:51:47;5.85;;;3.90;;
10667;SDS011;5382;42.136;24.796;2023-05-10T08:54:17;5.55;;;3.50;;
10667;SDS011;5382;42.136;24.796;2023-05-10T08:56:46;5.15;;;3.70;;
10667;SDS011;5382;42.136;24.796;2023-05-10T08:59:13;4.53;;;3.75;;
10667;SDS011;5382;42.136;24.796;2023-05-10T09:01:41;4.20;;;3.53;;
10667;SDS011;5382;42.136;24.796;2023-05-10T09:04:10;6.45;;;3.85;;
10667;SDS011;5382;42.136;24.796;2023-05-10T09:06:38;4.22;;;3.35;;
10667;SDS011;5382;42.136;24.796;2023-05-10T09:09:05;5.78;;;3.35;;
10667;SDS011;5382;42.136;24.796;2023-05-10T09:11:32;4.30;;;3.35;;
10667;SDS011;5382;42.136;24.796;2023-05-10T09:14:00;4.78;;;3.33;;
10667;SDS011;5382;42.136;24.796;2023-05-10T09:16:27;4.20;;;3.70;;
10667;SDS011;5382;42.136;24.796;2023-05-10T09:18:54;5.88;;;3.80;;
10667;SDS011;5382;42.136;24.796;2023-05-10T09:21:21;9.43;;;4.00;;
10667;SDS011;5382;42.136;24.796;2023-05-10T09:23:48;4.22;;;3.40;;
10667;SDS011;5382;42.136;24.796;2023-05-10T09:26:16;3.95;;;3.28;;
10667;SDS011;5382;42.136;24.796;2023-05-10T09:28:52;5.18;;;4.25;;
10667;SDS011;5382;42.136;24.796;2023-05-10T09:31:22;5.70;;;3.80;;
10667;SDS011;5382;42.136;24.796;2023-05-10T09:33:50;4.88;;;3.40;;
10667;SDS011;5382;42.136;24.796;2023-05-10T09:36:18;5.10;;;3.47;;
10667;SDS011;5382;42.136;24.796;2023-05-10T09:38:46;4.78;;;3.08;;
10667;SDS011;5382;42.136;24.796;2023-05-10T09:41:17;4.03;;;3.40;;
10667;SDS011;5382;42.136;24.796;2023-05-10T09:43:45;4.25;;;3.47;;
10667;SDS011;5382;42.136;24.796;2023-05-10T09:46:12;4.43;;;3.28;;
10667;SDS011;5382;42.136;24.796;2023-05-10T09:48:42;3.90;;;3.20;;
10667;SDS011;5382;42.136;24.796;2023-05-10T09:51:10;4.18;;;3.58;;
10667;SDS011;5382;42.136;24.796;2023-05-10T09:53:37;5.63;;;3.60;;
10667;SDS011;5382;42.136;24.796;2023-05-10T09:56:04;4.03;;;2.92;;
10667;SDS011;5382;42.136;24.796;2023-05-10T09:58:30;4.20;;;3.30;;
10667;SDS011;5382;42.136;24.796;2023-05-10T10:00:57;3.58;;;3.05;;
10667;SDS011;5382;42.136;24.796;2023-05-10T10:03:24;3.72;;;3.00;;
10667;SDS011;5382;42.136;24.796;2023-05-10T10:05:52;5.82;;;3.10;;
10667;SDS011;5382;42.136;24.796;2023-05-10T10:08:21;4.45;;;3.33;;
10667;SDS011;5382;42.136;24.796;2023-05-10T10:10:48;5.00;;;3.28;;
10667;SDS011;5382;42.136;24.796;2023-05-10T10:13:15;3.38;;;3.00;;
10667;SDS011;5382;42.136;24.796;2023-05-10T10:15:42;4.32;;;3.05;;
10667;SDS011;5382;42.136;24.796;2023-05-10T10:18:11;3.20;;;2.90;;
10667;SDS011;5382;42.136;24.796;2023-05-10T10:20:39;5.15;;;3.25;;
10667;SDS011;5382;42.136;24.796;2023-05-10T10:23:09;6.10;;;3.35;;
10667;SDS011;5382;42.136;24.796;2023-05-10T10:25:35;4.43;;;3.50;;
10667;SDS011;5382;42.136;24.796;2023-05-10T10:28:11;5.45;;;3.25;;
10667;SDS011;5382;42.136;24.796;2023-05-10T10:30:49;7.45;;;3.20;;
10667;SDS011;5382;42.136;24.796;2023-05-10T10:33:33;3.22;;;2.92;;
10667;SDS011;5382;42.136;24.796;2023-05-10T10:36:06;3.92;;;3.42;;
10667;SDS011;5382;42.136;24.796;2023-05-10T10:38:38;5.03;;;3.60;;
10667;SDS011;5382;42.136;24.796;2023-05-10T10:41:28;8.18;;;3.90;;
10667;SDS011;5382;42.136;24.796;2023-05-10T10:47:03;4.25;;;3.70;;
10667;SDS011;5382;42.136;24.796;2023-05-10T10:49:37;4.15;;;3.50;;
10667;SDS011;5382;42.136;24.796;2023-05-10T10:52:24;3.65;;;3.22;;
10667;SDS011;5382;42.136;24.796;2023-05-10T10:54:59;4.13;;;3.38;;
10667;SDS011;5382;42.136;24.796;2023-05-10T10:57:31;3.60;;;3.30;;
10667;SDS011;5382;42.136;24.796;2023-05-10T11:02:56;5.53;;;4.20;;
10667;SDS011;5382;42.136;24.796;2023-05-10T11:05:34;4.25;;;3.85;;
10667;SDS011;5382;42.136;24.796;2023-05-10T11:08:10;4.40;;;4.00;;
10667;SDS011;5382;42.136;24.796;2023-05-10T11:10:50;8.68;;;4.47;;
10667;SDS011;5382;42.136;24.796;2023-05-10T11:13:30;4.50;;;3.80;;
10667;SDS011;5382;42.136;24.796;2023-05-10T11:15:57;3.28;;;2.85;;
10667;SDS011;5382;42.136;24.796;2023-05-10T11:18:26;3.90;;;3.50;;
10667;SDS011;5382;42.136;24.796;2023-05-10T11:20:56;6.45;;;5.85;;
10667;SDS011;5382;42.136;24.796;2023-05-10T11:23:28;4.65;;;3.58;;
10667;SDS011;5382;42.136;24.796;2023-05-10T11:25:58;3.40;;;3.10;;
10667;SDS011;5382;42.136;24.796;2023-05-10T11:28:26;5.15;;;3.00;;
10667;SDS011;5382;42.136;24.796;2023-05-10T11:30:53;2.88;;;2.67;;
10667;SDS011;5382;42.136;24.796;2023-05-10T11:33:21;5.00;;;3.00;;
10667;SDS011;5382;42.136;24.796;2023-05-10T11:35:48;3.30;;;2.50;;
10667;SDS011;5382;42.136;24.796;2023-05-10T11:38:15;4.65;;;2.80;;
10667;SDS011;5382;42.136;24.796;2023-05-10T11:40:42;2.90;;;2.60;;
10667;SDS011;5382;42.136;24.796;2023-05-10T11:43:11;7.20;;;3.17;;
10667;SDS011;5382;42.136;24.796;2023-05-10T11:45:37;3.22;;;2.95;;
10667;SDS011;5382;42.136;24.796;2023-05-10T11:48:07;4.45;;;2.80;;
10667;SDS011;5382;42.136;24.796;2023-05-10T11:50:34;3.38;;;3.08;;
10667;SDS011;5382;42.136;24.796;2023-05-10T11:53:01;3.90;;;3.53;;
10667;SDS011;5382;42.136;24.796;2023-05-10T11:55:28;4.35;;;3.30;;
10667;SDS011;5382;42.136;24.796;2023-05-10T11:58:01;3.28;;;2.90;;
10667;SDS011;5382;42.136;24.796;2023-05-10T12:00:30;5.75;;;2.70;;
10667;SDS011;5382;42.136;24.796;2023-05-10T12:02:57;3.83;;;3.53;;
10667;SDS011;5382;42.136;24.796;2023-05-10T12:05:24;4.00;;;3.38;;
10667;SDS011;5382;42.136;24.796;2023-05-10T12:07:52;6.07;;;3.80;;
10667;SDS011;5382;42.136;24.796;2023-05-10T12:10:24;3.55;;;2.90;;
10667;SDS011;5382;42.136;24.796;2023-05-10T12:12:52;3.38;;;3.08;;
10667;SDS011;5382;42.136;24.796;2023-05-10T12:15:20;4.13;;;3.30;;
10667;SDS011;5382;42.136;24.796;2023-05-10T12:17:50;3.33;;;3.03;;
10667;SDS011;5382;42.136;24.796;2023-05-10T12:20:18;5.10;;;3.70;;
10667;SDS011;5382;42.136;24.796;2023-05-10T12:22:46;5.00;;;4.30;;
10667;SDS011;5382;42.136;24.796;2023-05-10T12:25:15;5.35;;;3.85;;
10667;SDS011;5382;42.136;24.796;2023-05-10T12:27:47;4.97;;;4.50;;
10667;SDS011;5382;42.136;24.796;2023-05-10T12:30:18;4.68;;;4.13;;
10667;SDS011;5382;42.136;24.796;2023-05-10T12:32:47;5.70;;;5.10;;
10667;SDS011;5382;42.136;24.796;2023-05-10T12:35:16;5.75;;;4.68;;
10667;SDS011;5382;42.136;24.796;2023-05-10T12:37:46;4.95;;;4.30;;
10667;SDS011;5382;42.136;24.796;2023-05-10T12:40:12;6.38;;;4.70;;
10667;SDS011;5382;42.136;24.796;2023-05-10T12:42:40;5.03;;;4.63;;
10667;SDS011;5382;42.136;24.796;2023-05-10T12:45:07;6.43;;;4.78;;
10667;SDS011;5382;42.136;24.796;2023-05-10T12:47:35;5.68;;;5.22;;
10667;SDS011;5382;42.136;24.796;2023-05-10T12:50:02;5.70;;;5.20;;
10667;SDS011;5382;42.136;24.796;2023-05-10T12:52:31;6.18;;;5.68;;
10667;SDS011;5382;42.136;24.796;2023-05-10T12:54:59;5.50;;;5.00;;
10667;SDS011;5382;42.136;24.796;2023-05-10T12:57:26;5.10;;;4.60;;
10667;SDS011;5382;42.136;24.796;2023-05-10T12:59:53;6.53;;;5.93;;
10667;SDS011;5382;42.136;24.796;2023-05-10T13:02:20;5.15;;;4.68;;
10667;SDS011;5382;42.136;24.796;2023-05-10T13:04:48;5.03;;;4.63;;
10667;SDS011;5382;42.136;24.796;2023-05-10T13:07:15;8.32;;;4.85;;
10667;SDS011;5382;42.136;24.796;2023-05-10T13:09:43;4.53;;;4.13;;
10667;SDS011;5382;42.136;24.796;2023-05-10T13:12:10;4.40;;;3.88;;
10667;SDS011;5382;42.136;24.796;2023-05-10T13:14:37;4.40;;;4.03;;
10667;SDS011;5382;42.136;24.796;2023-05-10T13:17:05;5.47;;;3.83;;
10667;SDS011;5382;42.136;24.796;2023-05-10T13:19:32;5.50;;;4.55;;
10667;SDS011;5382;42.136;24.796;2023-05-10T13:21:59;5.10;;;4.60;;
10667;SDS011;5382;42.136;24.796;2023-05-10T13:24:25;8.32;;;4.28;;
10667;SDS011;5382;42.136;24.796;2023-05-10T13:26:54;6.43;;;4.72;;
10667;SDS011;5382;42.136;24.796;2023-05-10T13:29:20;4.60;;;4.30;;
10667;SDS011;5382;42.136;24.796;2023-05-10T13:31:47;6.10;;;5.60;;
10667;SDS011;5382;42.136;24.796;2023-05-10T13:34:14;5.28;;;4.60;;
10667;SDS011;5382;42.136;24.796;2023-05-10T13:36:41;5.80;;;5.13;;
10667;SDS011;5382;42.136;24.796;2023-05-10T13:39:08;6.55;;;5.55;;
10667;SDS011;5382;42.136;24.796;2023-05-10T13:41:35;5.72;;;5.03;;
10667;SDS011;5382;42.136;24.796;2023-05-10T13:44:03;6.03;;;5.53;;
10667;SDS011;5382;42.136;24.796;2023-05-10T13:46:30;6.63;;;6.03;;
10667;SDS011;5382;42.136;24.796;2023-05-10T13:48:56;5.72;;;5.32;;
10667;SDS011;5382;42.136;24.796;2023-05-10T13:51:23;7.75;;;6.95;;
10667;SDS011;5382;42.136;24.796;2023-05-10T13:53:50;6.20;;;5.65;;
10667;SDS011;5382;42.136;24.796;2023-05-10T13:56:17;6.20;;;5.60;;
10667;SDS011;5382;42.136;24.796;2023-05-10T13:58:44;5.20;;;4.72;;
10667;SDS011;5382;42.136;24.796;2023-05-10T14:01:12;5.75;;;5.22;;
10667;SDS011;5382;42.136;24.796;2023-05-10T14:03:40;5.93;;;5.43;;
10667;SDS011;5382;42.136;24.796;2023-05-10T14:06:07;5.85;;;5.30;;
10667;SDS011;5382;42.136;24.796;2023-05-10T14:08:34;8.88;;;6.20;;
10667;SDS011;5382;42.136;24.796;2023-05-10T14:11:01;15.40;;;8.88;;
10667;SDS011;5382;42.136;24.796;2023-05-10T14:13:28;6.40;;;5.75;;
10667;SDS011;5382;42.136;24.796;2023-05-10T14:15:55;7.15;;;5.90;;
10667;SDS011;5382;42.136;24.796;2023-05-10T14:18:25;5.72;;;5.32;;
10667;SDS011;5382;42.136;24.796;2023-05-10T14:20:52;5.50;;;5.00;;
10667;SDS011;5382;42.136;24.796;2023-05-10T14:23:18;6.38;;;5.78;;
10667;SDS011;5382;42.136;24.796;2023-05-10T14:25:49;6.22;;;4.97;;
10667;SDS011;5382;42.136;24.796;2023-05-10T14:28:15;4.53;;;4.03;;
10667;SDS011;5382;42.136;24.796;2023-05-10T14:30:43;5.32;;;4.85;;
10667;SDS011;5382;42.136;24.796;2023-05-10T14:33:10;6.03;;;4.82;;
10667;SDS011;5382;42.136;24.796;2023-05-10T14:35:38;6.47;;;3.88;;
10667;SDS011;5382;42.136;24.796;2023-05-10T14:38:05;4.25;;;3.85;;
10667;SDS011;5382;42.136;24.796;2023-05-10T14:40:32;4.03;;;3.47;;
10667;SDS011;5382;42.136;24.796;2023-05-10T14:42:59;5.55;;;3.75;;
10667;SDS011;5382;42.136;24.796;2023-05-10T14:45:26;4.20;;;3.88;;
10667;SDS011;5382;42.136;24.796;2023-05-10T14:47:52;4.10;;;3.75;;
10667;SDS011;5382;42.136;24.796;2023-05-10T14:50:19;3.75;;;3.45;;
10667;SDS011;5382;42.136;24.796;2023-05-10T14:52:47;5.85;;;3.72;;
10667;SDS011;5382;42.136;24.796;2023-05-10T14:55:15;5.90;;;3.70;;
10667;SDS011;5382;42.136;24.796;2023-05-10T14:57:42;5.10;;;3.10;;
10667;SDS011;5382;42.136;24.796;2023-05-10T15:00:12;3.63;;;3.25;;
10667;SDS011;5382;42.136;24.796;2023-05-10T15:02:40;3.97;;;3.50;;
10667;SDS011;5382;42.136;24.796;2023-05-10T15:05:07;3.58;;;3.28;;
10667;SDS011;5382;42.136;24.796;2023-05-10T15:07:34;6.75;;;5.00;;